Time;durP1;ratioP1;P1;durP2;ratioP2;P2;SDS_P1;SDS_P2;PMS_P1;PMS_P2;Temp;Humidity;BMP_temperature;BMP_pressure;BME280_temperature;BME280_humidity;BME280_pressure;Samples;Min_cycle;Max_cycle;Signal;HPM_P1;HPM_P2
2021/12/06 00:00:19;;;;;;;;;;;4.00;99.90;4.50;98911.00;;;;348944;27;83351;-89
2021/12/06 00:00:58;;;;;;;;;;;4.00;99.90;4.50;98906.00;;;;346951;28;91319;-89
2021/12/06 00:01:21;;;;;;;;;;;4.00;99.90;4.50;98903.00;;;;343053;28;82553;-88
2021/12/06 00:01:49;;;;;;;;;;;4.00;99.90;4.60;98907.00;;;;342885;28;92320;-89
2021/12/06 00:02:13;;;;;;;;;;;4.00;99.90;4.50;98909.00;;;;343336;28;83470;-89
2021/12/06 00:02:26;;;;;;;;;;;4.00;99.90;4.60;98906.00;;;;342963;28;89544;-89
2021/12/06 00:02:38;;;;;;;;;;;4.00;99.90;4.60;98902.00;;;;341769;28;83513;-88
2021/12/06 00:02:50;;;;;;;;;;;4.00;99.90;4.60;98905.00;;;;343037;28;88821;-88
2021/12/06 00:03:05;;;;;;;;;;;4.00;99.90;4.50;98904.00;;;;343176;28;83586;-89
2021/12/06 00:03:25;;;;;;;;;;;4.00;99.90;4.50;98910.00;;;;345351;28;91256;-88
2021/12/06 00:03:47;;;;;;;;;;;4.00;99.90;4.60;98905.00;;;;343971;28;86336;-88
2021/12/06 00:04:20;;;;;;;;;;;4.00;99.90;4.60;98908.00;;;;342915;28;87919;-88
2021/12/06 00:04:33;;;;;;;;;;;4.00;99.90;4.60;98914.00;;;;342046;28;82287;-89
2021/12/06 00:04:45;;;;;;;;;;;4.00;99.90;4.60;98910.00;;;;344120;28;88914;-89
2021/12/06 00:04:57;;;;;;;;;;;4.00;99.90;4.50;98907.00;;;;342065;28;82437;-89
2021/12/06 00:05:09;;;;;;;;;;;4.00;99.90;4.50;98913.00;;;;344128;28;91734;-89
2021/12/06 00:05:23;;;;;;;;;;;4.00;99.90;4.50;98916.00;;;;343317;28;83157;-88
2021/12/06 00:05:34;;;;;;;;;;;4.00;99.90;4.50;98913.00;;;;345712;28;88117;-89
2021/12/06 00:05:46;;;;;;;;;;;4.00;99.90;4.50;98911.00;;;;345864;28;83409;-88
2021/12/06 00:05:58;;;;;;;;;;;3.90;99.90;4.50;98900.00;;;;343987;28;92911;-89
2021/12/06 00:06:10;;;;;;;;;;;4.00;99.90;4.50;98910.00;;;;343033;28;82356;-88
2021/12/06 00:06:22;;;;;;;;;;;4.00;99.90;4.40;98910.00;;;;343018;28;89355;-89
2021/12/06 00:06:37;;;;;;;;;;;3.90;99.90;4.40;98907.00;;;;342816;28;82799;-88
2021/12/06 00:06:53;;;;;;;;;;;3.90;99.90;4.50;98900.00;;;;342698;28;88083;-89
2021/12/06 00:07:10;;;;;;;;;;;3.90;99.90;4.60;98911.00;;;;343256;28;83547;-89
2021/12/06 00:07:23;;;;;;;;;;;3.90;99.90;4.50;98915.00;;;;344210;28;88646;-89
2021/12/06 00:07:38;;;;;;;;;;;3.90;99.90;4.50;98909.00;;;;344627;28;83717;-89
2021/12/06 00:07:49;;;;;;;;;;;3.90;99.90;4.50;98912.00;;;;341309;28;92411;-89
2021/12/06 00:08:02;;;;;;;;;;;4.00;99.90;4.50;98920.00;;;;344683;28;83108;-89
2021/12/06 00:08:14;;;;;;;;;;;3.90;99.90;4.50;98921.00;;;;344329;28;90172;-89
2021/12/06 00:08:25;;;;;;;;;;;4.00;99.90;4.50;98922.00;;;;340678;28;84864;-89
2021/12/06 00:08:38;;;;;;;;;;;3.90;99.90;4.50;98913.00;;;;341458;28;91461;-88
2021/12/06 00:08:49;;;;;;;;;;;3.90;99.90;4.50;98911.00;;;;343472;28;83324;-88
2021/12/06 00:09:02;;;;;;;;;;;3.90;99.90;4.50;98911.00;;;;340346;28;88974;-89
2021/12/06 00:09:16;;;;;;;;;;;3.90;99.90;4.50;98906.00;;;;343320;28;83372;-89
2021/12/06 00:09:28;;;;;;;;;;;3.90;99.90;4.50;98904.00;;;;342997;28;88380;-89
2021/12/06 00:09:40;;;;;;;;;;;3.90;99.90;4.50;98915.00;;;;343255;28;82552;-89
2021/12/06 00:09:52;;;;;;;;;;;3.90;99.90;4.40;98910.00;;;;344241;28;91173;-89
2021/12/06 00:10:06;;;;;;;;;;;3.90;99.90;4.40;98907.00;;;;341992;28;82453;-88
2021/12/06 00:10:18;;;;;;;;;;;3.90;99.90;4.40;98913.00;;;;341597;28;89743;-89
2021/12/06 00:10:29;;;;;;;;;;;3.90;99.90;4.40;98919.00;;;;343294;28;82542;-87
2021/12/06 00:10:42;;;;;;;;;;;3.90;99.90;4.50;98910.00;;;;344287;28;89136;-89
2021/12/06 00:10:54;;;;;;;;;;;3.90;99.90;4.50;98921.00;;;;342038;28;83450;-89
2021/12/06 00:11:09;;;;;;;;;;;3.90;99.90;4.50;98915.00;;;;341650;28;89214;-89
2021/12/06 00:11:22;;;;;;;;;;;3.90;99.90;4.40;98908.00;;;;340636;28;83216;-89
2021/12/06 00:11:34;;;;;;;;;;;3.90;99.90;4.50;98916.00;;;;341574;28;89763;-88
2021/12/06 00:11:46;;;;;;;;;;;3.90;99.90;4.40;98912.00;;;;342801;28;83731;-88
2021/12/06 00:11:59;;;;;;;;;;;3.90;99.90;4.40;98915.00;;;;342933;28;88956;-88
2021/12/06 00:12:11;;;;;;;;;;;3.90;99.90;4.50;98916.00;;;;343202;28;82397;-88
2021/12/06 00:12:23;;;;;;;;;;;3.90;99.90;4.50;98912.00;;;;342825;28;90107;-89
2021/12/06 00:12:35;;;;;;;;;;;3.90;99.90;4.60;98909.00;;;;344643;28;83408;-89
2021/12/06 00:12:47;;;;;;;;;;;3.90;99.90;4.60;98907.00;;;;342884;28;88084;-89
2021/12/06 00:12:59;;;;;;;;;;;3.90;99.90;4.60;98911.00;;;;344793;28;83123;-89
2021/12/06 00:13:12;;;;;;;;;;;3.90;99.90;4.50;98914.00;;;;341671;28;86980;-89
2021/12/06 00:13:24;;;;;;;;;;;3.90;99.90;4.40;98905.00;;;;344734;28;83325;-89
2021/12/06 00:13:37;;;;;;;;;;;3.90;99.90;4.50;98907.00;;;;342888;28;89223;-88
2021/12/06 00:13:49;;;;;;;;;;;3.90;99.90;4.50;98914.00;;;;343203;28;83315;-89
2021/12/06 00:14:02;;;;;;;;;;;3.90;99.90;4.50;98916.00;;;;340211;28;88475;-88
2021/12/06 00:14:14;;;;;;;;;;;3.90;99.90;4.40;98906.00;;;;343334;28;83419;-89
2021/12/06 00:14:29;;;;;;;;;;;3.90;99.90;4.40;98909.00;;;;342553;28;89213;-89
2021/12/06 00:14:41;;;;;;;;;;;3.90;99.90;4.50;98909.00;;;;343138;28;83457;-89
2021/12/06 00:14:53;;;;;;;;;;;3.90;99.90;4.40;98911.00;;;;344325;28;88379;-88
2021/12/06 00:15:05;;;;;;;;;;;3.90;99.90;4.50;98907.00;;;;344567;28;83444;-89
2021/12/06 00:15:17;;;;;;;;;;;3.90;99.90;4.60;98913.00;;;;342725;28;90977;-88
2021/12/06 00:15:31;;;;;;;;;;;3.90;99.90;4.60;98905.00;;;;343445;28;83252;-89
2021/12/06 00:15:45;;;;;;;;;;;3.90;99.90;4.70;98907.00;;;;341660;28;88592;-89
2021/12/06 00:15:57;;;;;;;;;;;3.90;99.90;4.50;98912.00;;;;341788;28;83610;-89
2021/12/06 00:16:14;;;;;;;;;;;3.90;99.90;4.60;98906.00;;;;343011;28;88361;-89
2021/12/06 00:16:25;;;;;;;;;;;3.90;99.90;4.60;98914.00;;;;340473;28;83556;-89
2021/12/06 00:16:37;;;;;;;;;;;3.90;99.90;4.50;98915.00;;;;340190;28;90280;-87
2021/12/06 00:16:50;;;;;;;;;;;4.00;99.90;4.60;98910.00;;;;341887;28;82638;-89
2021/12/06 00:17:04;;;;;;;;;;;3.90;99.90;4.60;98904.00;;;;341665;28;87668;-89
2021/12/06 00:17:16;;;;;;;;;;;3.90;99.90;4.50;98913.00;;;;343366;28;82556;-89
2021/12/06 00:17:28;;;;;;;;;;;3.90;99.90;4.50;98909.00;;;;341492;28;90655;-89
2021/12/06 00:17:40;;;;;;;;;;;3.90;99.90;4.50;98910.00;;;;340555;28;83338;-88
2021/12/06 00:17:52;;;;;;;;;;;3.90;99.90;4.50;98918.00;;;;341331;28;90327;-89
2021/12/06 00:18:03;;;;;;;;;;;3.90;99.90;4.50;98909.00;;;;340737;28;82549;-89
2021/12/06 00:18:16;;;;;;;;;;;3.90;99.90;4.50;98911.00;;;;341622;28;88266;-89
2021/12/06 00:18:28;;;;;;;;;;;3.90;99.90;4.50;98914.00;;;;343197;28;83257;-89
2021/12/06 00:18:40;;;;;;;;;;;3.90;99.90;4.50;98921.00;;;;341240;28;92356;-89
2021/12/06 00:18:51;;;;;;;;;;;3.90;99.90;4.50;98912.00;;;;341797;28;83329;-89
2021/12/06 00:19:03;;;;;;;;;;;3.90;99.90;4.60;98913.00;;;;341640;28;89109;-89
2021/12/06 00:19:16;;;;;;;;;;;3.90;99.90;4.60;98912.00;;;;343386;28;83420;-89
2021/12/06 00:19:28;;;;;;;;;;;4.00;99.90;4.50;98923.00;;;;340263;28;89190;-89
2021/12/06 00:19:40;;;;;;;;;;;4.00;99.90;4.50;98914.00;;;;340471;28;83809;-89
2021/12/06 00:19:52;;;;;;;;;;;4.00;99.90;4.50;98912.00;;;;344136;28;90105;-89
2021/12/06 00:20:05;;;;;;;;;;;3.90;99.90;4.60;98918.00;;;;343360;28;83260;-89
2021/12/06 00:20:17;;;;;;;;;;;3.90;99.90;4.60;98910.00;;;;340111;28;89071;-89
2021/12/06 00:20:29;;;;;;;;;;;3.90;99.90;4.60;98913.00;;;;344419;28;83508;-89
2021/12/06 00:20:40;;;;;;;;;;;3.90;99.90;4.60;98923.00;;;;342862;28;88891;-89
2021/12/06 00:20:52;;;;;;;;;;;3.90;99.90;4.60;98916.00;;;;343324;28;83523;-89
2021/12/06 00:21:04;;;;;;;;;;;3.90;99.90;4.60;98916.00;;;;343031;28;88102;-89
2021/12/06 00:21:17;;;;;;;;;;;4.00;99.90;4.50;98919.00;;;;341740;28;83427;-89
2021/12/06 00:21:29;;;;;;;;;;;3.90;99.90;4.60;98908.00;;;;339799;28;91902;-89
2021/12/06 00:21:41;;;;;;;;;;;4.00;99.90;4.60;98919.00;;;;344771;28;82807;-88
2021/12/06 00:21:53;;;;;;;;;;;4.00;99.90;4.50;98905.00;;;;344239;28;88553;-89
2021/12/06 00:22:07;;;;;;;;;;;4.00;99.90;4.50;98915.00;;;;342016;28;83254;-89
2021/12/06 00:22:23;;;;;;;;;;;4.00;99.90;4.60;98917.00;;;;342765;28;89225;-88
2021/12/06 00:22:34;;;;;;;;;;;4.00;99.90;4.60;98919.00;;;;344713;28;83391;-89
2021/12/06 00:22:46;;;;;;;;;;;4.00;99.90;4.60;98904.00;;;;345541;28;87767;-88
2021/12/06 00:22:58;;;;;;;;;;;4.00;99.90;4.50;98917.00;;;;343263;28;83272;-89
2021/12/06 00:23:11;;;;;;;;;;;4.00;99.90;4.50;98912.00;;;;342964;28;87966;-89
2021/12/06 00:23:22;;;;;;;;;;;4.00;99.90;4.60;98912.00;;;;344757;28;83369;-88
2021/12/06 00:23:34;;;;;;;;;;;4.00;99.90;4.60;98914.00;;;;344106;28;91330;-89
2021/12/06 00:23:46;;;;;;;;;;;4.00;99.90;4.50;98912.00;;;;343336;28;83266;-88
2021/12/06 00:23:58;;;;;;;;;;;4.00;99.90;4.50;98913.00;;;;341619;28;89381;-88
2021/12/06 00:24:10;;;;;;;;;;;4.00;99.90;4.50;98911.00;;;;343335;28;83220;-88
2021/12/06 00:24:21;;;;;;;;;;;4.00;99.90;4.60;98915.00;;;;342827;28;89638;-88
2021/12/06 00:24:33;;;;;;;;;;;4.00;99.90;4.60;98910.00;;;;342786;28;82621;-89
2021/12/06 00:24:45;;;;;;;;;;;4.00;99.90;4.70;98917.00;;;;341495;28;90479;-89
2021/12/06 00:24:57;;;;;;;;;;;4.00;99.90;4.60;98915.00;;;;344664;28;82405;-89
2021/12/06 00:25:09;;;;;;;;;;;4.00;99.90;4.50;98915.00;;;;342973;28;89338;-89
2021/12/06 00:25:21;;;;;;;;;;;4.00;99.90;4.60;98917.00;;;;343329;28;83359;-89
2021/12/06 00:25:35;;;;;;;;;;;4.00;99.90;4.60;98905.00;;;;344880;28;89369;-89
2021/12/06 00:25:47;;;;;;;;;;;4.00;99.90;4.60;98910.00;;;;343223;28;82498;-89
2021/12/06 00:25:58;;;;;;;;;;;4.00;99.90;4.50;98914.00;;;;342919;28;89481;-89
2021/12/06 00:26:10;;;;;;;;;;;4.00;99.90;4.50;98912.00;;;;343263;28;82463;-89
2021/12/06 00:26:22;;;;;;;;;;;4.00;99.90;4.50;98912.00;;;;344011;28;92141;-88
2021/12/06 00:26:34;;;;;;;;;;;4.00;99.90;4.60;98916.00;;;;344561;28;83370;-89
2021/12/06 00:26:46;;;;;;;;;;;4.00;99.90;4.60;98909.00;;;;341457;28;90130;-89
2021/12/06 00:26:57;;;;;;;;;;;4.00;99.90;4.60;98912.00;;;;342086;28;83184;-89
2021/12/06 00:27:09;;;;;;;;;;;4.00;99.90;4.50;98913.00;;;;342619;28;90996;-89
2021/12/06 00:27:21;;;;;;;;;;;4.00;99.90;4.60;98914.00;;;;340589;28;82434;-87
2021/12/06 00:27:33;;;;;;;;;;;4.00;99.90;4.60;98914.00;;;;342279;28;87120;-89
2021/12/06 00:27:45;;;;;;;;;;;4.00;99.90;4.50;98917.00;;;;344662;28;83211;-89
2021/12/06 00:27:57;;;;;;;;;;;4.00;99.90;4.50;98925.00;;;;342854;28;89392;-88
2021/12/06 00:28:09;;;;;;;;;;;4.00;99.90;4.50;98923.00;;;;344608;28;83460;-89
2021/12/06 00:28:21;;;;;;;;;;;4.00;99.90;4.50;98923.00;;;;344063;28;90326;-89
2021/12/06 00:28:33;;;;;;;;;;;3.90;99.90;4.60;98925.00;;;;343352;28;83475;-89
2021/12/06 00:28:45;;;;;;;;;;;4.00;99.90;4.60;98919.00;;;;341340;28;91593;-89
2021/12/06 00:28:58;;;;;;;;;;;4.00;99.90;4.70;98920.00;;;;340513;28;83460;-88
2021/12/06 00:29:10;;;;;;;;;;;4.00;99.90;4.70;98914.00;;;;342825;28;90175;-89
2021/12/06 00:29:22;;;;;;;;;;;4.00;99.90;4.70;98917.00;;;;343349;28;83433;-88
2021/12/06 00:29:34;;;;;;;;;;;4.00;99.90;4.60;98925.00;;;;342768;28;92032;-88
2021/12/06 00:29:46;;;;;;;;;;;4.00;99.90;4.60;98924.00;;;;343386;28;82443;-88
2021/12/06 00:29:58;;;;;;;;;;;4.00;99.90;4.60;98921.00;;;;344088;28;90505;-88
2021/12/06 00:30:14;;;;;;;;;;;4.00;99.90;4.60;98916.00;;;;344746;28;82386;-89
2021/12/06 00:30:26;;;;;;;;;;;4.00;99.90;4.60;98921.00;;;;341548;28;88485;-89
2021/12/06 00:30:38;;;;;;;;;;;4.00;99.90;4.60;98921.00;;;;343134;28;83448;-88
2021/12/06 00:30:53;;;;;;;;;;;4.00;99.90;4.70;98916.00;;;;345377;28;93714;-89
2021/12/06 00:31:05;;;;;;;;;;;4.00;99.90;4.60;98919.00;;;;345787;28;83617;-89
2021/12/06 00:31:17;;;;;;;;;;;4.00;99.90;4.60;98932.00;;;;344292;28;88524;-89
2021/12/06 00:31:32;;;;;;;;;;;4.00;99.90;4.60;98925.00;;;;343380;28;83263;-89
2021/12/06 00:31:44;;;;;;;;;;;4.00;99.90;4.70;98919.00;;;;342721;28;91863;-89
2021/12/06 00:31:56;;;;;;;;;;;4.00;99.90;4.70;98930.00;;;;344702;28;83255;-90
2021/12/06 00:32:08;;;;;;;;;;;4.00;99.90;4.70;98919.00;;;;341600;28;88350;-89
2021/12/06 00:32:20;;;;;;;;;;;4.00;99.90;4.80;98916.00;;;;342063;28;83274;-89
2021/12/06 00:32:32;;;;;;;;;;;4.00;99.90;4.80;98925.00;;;;341384;28;91821;-89
2021/12/06 00:32:44;;;;;;;;;;;4.10;99.90;4.70;98926.00;;;;343084;28;82363;-89
2021/12/06 00:32:56;;;;;;;;;;;4.10;99.90;4.70;98927.00;;;;344030;28;92549;-89
2021/12/06 00:33:08;;;;;;;;;;;4.10;99.90;4.60;98923.00;;;;343461;28;82573;-89
2021/12/06 00:33:20;;;;;;;;;;;4.10;99.90;4.70;98921.00;;;;342905;28;88695;-89
2021/12/06 00:33:32;;;;;;;;;;;4.10;99.90;4.60;98930.00;;;;343342;28;83370;-88
2021/12/06 00:33:44;;;;;;;;;;;4.00;99.90;4.50;98928.00;;;;340184;28;91380;-89
2021/12/06 00:34:00;;;;;;;;;;;4.00;99.90;4.50;98932.00;;;;341826;28;83503;-89
2021/12/06 00:34:15;;;;;;;;;;;4.00;99.90;4.60;98925.00;;;;342751;28;91572;-88
2021/12/06 00:34:32;;;;;;;;;;;4.00;99.90;4.60;98929.00;;;;340639;28;83315;-89
2021/12/06 00:34:44;;;;;;;;;;;4.00;99.90;4.60;98930.00;;;;342899;28;87339;-89
2021/12/06 00:34:56;;;;;;;;;;;4.00;99.90;4.60;98933.00;;;;343254;28;82629;-89
2021/12/06 00:35:12;;;;;;;;;;;4.00;99.90;4.60;98918.00;;;;342682;28;92250;-89
2021/12/06 00:35:24;;;;;;;;;;;4.00;99.90;4.60;98925.00;;;;339343;28;83595;-89
2021/12/06 00:35:36;;;;;;;;;;;4.00;99.90;4.70;98923.00;;;;343001;28;89167;-88
2021/12/06 00:35:48;;;;;;;;;;;4.00;99.90;4.60;98931.00;;;;343392;28;83362;-89
2021/12/06 00:36:04;;;;;;;;;;;4.00;99.90;4.70;98929.00;;;;342690;28;90464;-89
2021/12/06 00:36:26;;;;;;;;;;;4.00;99.90;4.70;98935.00;;;;339264;28;82488;-89
2021/12/06 00:36:40;;;;;;;;;;;4.10;99.90;4.70;98932.00;;;;341426;28;93994;-89
2021/12/06 00:37:05;;;;;;;;;;;4.10;99.90;4.80;98927.00;;;;342008;28;83429;-89
2021/12/06 00:37:33;;;;;;;;;;;4.10;99.90;4.80;98921.00;;;;343034;28;83419;-89
2021/12/06 00:37:55;;;;;;;;;;;4.10;99.90;4.80;98925.00;;;;345510;28;88732;-88
2021/12/06 00:38:06;;;;;;;;;;;4.10;99.90;4.80;98916.00;;;;343291;28;82712;-88
2021/12/06 00:38:18;;;;;;;;;;;4.10;99.90;4.70;98933.00;;;;345680;28;88185;-89
2021/12/06 00:38:31;;;;;;;;;;;4.10;99.90;4.70;98921.00;;;;343295;28;82428;-89
2021/12/06 00:38:44;;;;;;;;;;;4.10;99.90;4.80;98928.00;;;;342938;28;87666;-89
2021/12/06 00:38:56;;;;;;;;;;;4.10;99.90;4.90;98930.00;;;;343312;28;83510;-89
2021/12/06 00:39:11;;;;;;;;;;;4.10;99.90;4.80;98927.00;;;;344207;28;91837;-88
2021/12/06 00:39:23;;;;;;;;;;;4.10;99.90;4.90;98927.00;;;;344556;28;83421;-89
2021/12/06 00:39:34;;;;;;;;;;;4.10;99.90;4.80;98929.00;;;;344225;28;89486;-89
2021/12/06 00:39:56;;;;;;;;;;;4.20;99.90;4.60;98934.00;;;;341906;28;83587;-89
2021/12/06 00:40:08;;;;;;;;;;;4.10;99.90;4.60;98924.00;;;;341430;28;90210;-89
2021/12/06 00:40:20;;;;;;;;;;;4.10;99.90;4.60;98940.00;;;;340713;28;83191;-89
2021/12/06 00:40:34;;;;;;;;;;;4.10;99.90;4.60;98929.00;;;;341420;28;88943;-89
2021/12/06 00:40:47;;;;;;;;;;;4.10;99.90;4.60;98936.00;;;;344614;28;82417;-89
2021/12/06 00:40:59;;;;;;;;;;;4.10;99.90;4.60;98935.00;;;;336141;28;89530;-89
2021/12/06 00:41:11;;;;;;;;;;;4.10;99.90;4.60;98939.00;;;;336458;28;82613;-89
2021/12/06 00:41:23;;;;;;;;;;;4.10;99.90;4.60;98938.00;;;;337446;28;88090;-89
2021/12/06 00:41:35;;;;;;;;;;;4.10;99.90;4.60;98928.00;;;;339136;28;83294;-89
2021/12/06 00:41:47;;;;;;;;;;;4.10;99.90;4.60;98932.00;;;;344036;28;91839;-89
2021/12/06 00:41:59;;;;;;;;;;;4.10;99.90;4.60;98932.00;;;;344829;28;82264;-88
2021/12/06 00:42:11;;;;;;;;;;;4.10;99.90;4.60;98929.00;;;;339924;28;89319;-89
2021/12/06 00:42:26;;;;;;;;;;;4.10;99.90;4.60;98934.00;;;;346008;28;83265;-88
2021/12/06 00:42:38;;;;;;;;;;;4.10;99.90;4.60;98934.00;;;;342893;28;89463;-88
2021/12/06 00:42:49;;;;;;;;;;;4.10;99.90;4.60;98928.00;;;;336538;28;83322;-89
2021/12/06 00:43:01;;;;;;;;;;;4.10;99.90;4.60;98934.00;;;;338511;28;90479;-89
2021/12/06 00:43:13;;;;;;;;;;;4.10;99.90;4.70;98932.00;;;;338993;28;83371;-89
2021/12/06 00:43:25;;;;;;;;;;;4.10;99.90;4.70;98941.00;;;;338451;28;91677;-89
2021/12/06 00:43:37;;;;;;;;;;;4.10;99.90;4.70;98932.00;;;;340532;28;83541;-89
2021/12/06 00:43:49;;;;;;;;;;;4.10;99.90;4.70;98941.00;;;;337529;28;87915;-89
2021/12/06 00:44:02;;;;;;;;;;;4.10;99.90;4.60;98943.00;;;;337805;28;83155;-89
2021/12/06 00:44:14;;;;;;;;;;;4.10;99.90;4.70;98938.00;;;;340019;28;89388;-89
2021/12/06 00:44:26;;;;;;;;;;;4.10;99.90;4.60;98947.00;;;;339030;28;83386;-89
2021/12/06 00:44:38;;;;;;;;;;;4.10;99.90;4.60;98942.00;;;;337139;28;91370;-89
2021/12/06 00:44:50;;;;;;;;;;;4.00;99.90;4.60;98939.00;;;;337900;28;83295;-89
2021/12/06 00:45:04;;;;;;;;;;;4.10;99.90;4.50;98939.00;;;;337490;28;91294;-89
2021/12/06 00:45:16;;;;;;;;;;;4.00;99.90;4.50;98945.00;;;;340528;28;83518;-89
2021/12/06 00:45:27;;;;;;;;;;;4.00;99.90;4.60;98945.00;;;;339785;28;90911;-89
2021/12/06 00:45:39;;;;;;;;;;;4.00;99.90;4.60;98937.00;;;;337742;28;82562;-89
2021/12/06 00:45:51;;;;;;;;;;;4.00;99.90;4.50;98940.00;;;;336050;28;92013;-89
2021/12/06 00:46:03;;;;;;;;;;;4.00;99.90;4.50;98938.00;;;;337702;28;83305;-89
2021/12/06 00:46:15;;;;;;;;;;;4.00;99.90;4.50;98942.00;;;;337360;28;89302;-88
2021/12/06 00:46:27;;;;;;;;;;;4.00;99.90;4.60;98945.00;;;;336602;28;83238;-90
2021/12/06 00:46:39;;;;;;;;;;;4.00;99.90;4.60;98938.00;;;;338581;28;90615;-88
2021/12/06 00:46:51;;;;;;;;;;;4.00;99.90;4.60;98935.00;;;;341919;28;82438;-89
2021/12/06 00:47:03;;;;;;;;;;;4.00;99.90;4.60;98943.00;;;;338857;28;88455;-89
2021/12/06 00:47:15;;;;;;;;;;;4.00;99.90;4.60;98939.00;;;;336565;28;82335;-89
2021/12/06 00:47:27;;;;;;;;;;;4.00;99.90;4.60;98937.00;;;;337498;28;89091;-89
2021/12/06 00:47:39;;;;;;;;;;;4.00;99.90;4.60;98934.00;;;;339292;28;83261;-89
2021/12/06 00:47:51;;;;;;;;;;;4.00;99.90;4.70;98934.00;;;;336184;28;89155;-89
2021/12/06 00:48:03;;;;;;;;;;;4.00;99.90;4.70;98936.00;;;;337910;28;83174;-89
2021/12/06 00:48:15;;;;;;;;;;;4.00;99.90;4.70;98941.00;;;;338458;28;93172;-88
2021/12/06 00:48:27;;;;;;;;;;;4.00;99.90;4.70;98934.00;;;;337909;28;83111;-89
2021/12/06 00:48:39;;;;;;;;;;;4.00;99.90;4.70;98933.00;;;;338680;28;89340;-89
2021/12/06 00:48:51;;;;;;;;;;;4.00;99.90;4.70;98940.00;;;;337778;28;83301;-88
2021/12/06 00:49:03;;;;;;;;;;;4.00;99.90;4.70;98933.00;;;;337538;28;89355;-89
2021/12/06 00:49:14;;;;;;;;;;;4.00;99.90;4.70;98934.00;;;;338968;28;83465;-89
2021/12/06 00:49:26;;;;;;;;;;;4.00;99.90;4.70;98935.00;;;;341111;28;90895;-89
2021/12/06 00:49:38;;;;;;;;;;;4.00;99.90;4.70;98935.00;;;;345883;28;83361;-89
2021/12/06 00:49:50;;;;;;;;;;;4.00;99.90;4.60;98938.00;;;;343106;28;86537;-89
2021/12/06 00:50:05;;;;;;;;;;;4.00;99.90;4.70;98938.00;;;;343307;28;83273;-89
2021/12/06 00:50:17;;;;;;;;;;;4.00;99.90;4.70;98934.00;;;;345695;28;89731;-89
2021/12/06 00:50:30;;;;;;;;;;;4.10;99.90;4.80;98935.00;;;;346124;28;83238;-89
2021/12/06 00:50:43;;;;;;;;;;;4.10;99.90;4.80;98933.00;;;;344295;28;89440;-89
2021/12/06 00:50:54;;;;;;;;;;;4.10;99.90;4.80;98931.00;;;;344800;28;83206;-89
2021/12/06 00:51:06;;;;;;;;;;;4.10;99.90;4.70;98932.00;;;;344354;28;89069;-89
2021/12/06 00:51:18;;;;;;;;;;;4.10;99.90;4.60;98932.00;;;;338911;28;82436;-89
2021/12/06 00:51:30;;;;;;;;;;;4.10;99.90;4.60;98933.00;;;;345438;28;89451;-89
2021/12/06 00:51:42;;;;;;;;;;;4.10;99.90;4.70;98932.00;;;;343091;28;83527;-89
2021/12/06 00:51:54;;;;;;;;;;;4.10;99.90;4.70;98936.00;;;;348239;27;88429;-89
2021/12/06 00:52:08;;;;;;;;;;;4.10;99.90;4.70;98938.00;;;;339214;28;83392;-89
2021/12/06 00:52:20;;;;;;;;;;;4.10;99.90;4.70;98940.00;;;;337319;28;90273;-89
2021/12/06 00:52:32;;;;;;;;;;;4.10;99.90;4.70;98938.00;;;;337523;28;82464;-89
2021/12/06 00:52:45;;;;;;;;;;;4.10;99.90;4.70;98934.00;;;;338528;28;92181;-88
2021/12/06 00:52:56;;;;;;;;;;;4.10;99.90;4.70;98932.00;;;;337783;28;83380;-89
2021/12/06 00:53:08;;;;;;;;;;;4.10;99.90;4.70;98931.00;;;;338454;28;91397;-89
2021/12/06 00:53:20;;;;;;;;;;;4.10;99.90;4.60;98934.00;;;;337765;28;82509;-88
2021/12/06 00:53:32;;;;;;;;;;;4.10;99.90;4.70;98935.00;;;;344099;28;90543;-89
2021/12/06 00:53:45;;;;;;;;;;;4.10;99.90;4.70;98928.00;;;;343433;28;82464;-89
2021/12/06 00:53:57;;;;;;;;;;;4.10;99.90;4.80;98937.00;;;;337110;28;92092;-87
2021/12/06 00:54:09;;;;;;;;;;;4.10;99.90;4.70;98934.00;;;;337883;28;82283;-89
2021/12/06 00:54:21;;;;;;;;;;;4.10;99.90;4.70;98938.00;;;;334728;29;89612;-89
2021/12/06 00:54:35;;;;;;;;;;;4.10;99.90;4.70;98929.00;;;;340677;28;82687;-89
2021/12/06 00:54:47;;;;;;;;;;;4.10;99.90;4.60;98938.00;;;;339446;28;86593;-89
2021/12/06 00:54:59;;;;;;;;;;;4.10;99.90;4.60;98942.00;;;;339075;28;83279;-89
2021/12/06 00:55:11;;;;;;;;;;;4.10;99.90;4.60;98939.00;;;;337405;28;88694;-89
2021/12/06 00:55:23;;;;;;;;;;;4.10;99.90;4.60;98935.00;;;;340422;28;82497;-89
2021/12/06 00:55:35;;;;;;;;;;;4.10;99.90;4.60;98942.00;;;;340807;28;89091;-89
2021/12/06 00:55:47;;;;;;;;;;;4.10;99.90;4.60;98932.00;;;;337820;28;82379;-89
2021/12/06 00:55:58;;;;;;;;;;;4.10;99.90;4.60;98933.00;;;;338468;28;88962;-88
2021/12/06 00:56:11;;;;;;;;;;;4.10;99.90;4.60;98937.00;;;;339709;28;82568;-89
2021/12/06 00:56:22;;;;;;;;;;;4.10;99.90;4.60;98949.00;;;;338610;28;92693;-87
2021/12/06 00:56:34;;;;;;;;;;;4.10;99.90;4.70;98937.00;;;;339240;28;83168;-89
2021/12/06 00:56:46;;;;;;;;;;;4.00;99.90;4.70;98943.00;;;;337195;28;90336;-89
2021/12/06 00:56:58;;;;;;;;;;;4.10;99.90;4.70;98940.00;;;;340417;28;83336;-89
2021/12/06 00:57:10;;;;;;;;;;;4.10;99.90;4.70;98941.00;;;;338687;28;90070;-88
2021/12/06 00:57:22;;;;;;;;;;;4.10;99.90;4.60;98937.00;;;;339129;28;83370;-89
2021/12/06 00:57:34;;;;;;;;;;;4.10;99.90;4.60;98941.00;;;;342477;28;88398;-89
2021/12/06 00:57:46;;;;;;;;;;;4.10;99.90;4.70;98939.00;;;;341569;28;83534;-89
2021/12/06 00:57:58;;;;;;;;;;;4.10;99.90;4.70;98940.00;;;;343011;28;88701;-88
2021/12/06 00:58:10;;;;;;;;;;;4.10;99.90;4.70;98934.00;;;;336402;28;83362;-89
2021/12/06 00:58:22;;;;;;;;;;;4.10;99.90;4.70;98946.00;;;;338171;28;89098;-89
2021/12/06 00:58:34;;;;;;;;;;;4.10;99.90;4.70;98939.00;;;;337718;28;83367;-88
2021/12/06 00:58:46;;;;;;;;;;;4.10;99.90;4.70;98937.00;;;;339999;28;88452;-89
2021/12/06 00:58:57;;;;;;;;;;;4.10;99.90;4.60;98943.00;;;;339921;28;82465;-87
2021/12/06 00:59:09;;;;;;;;;;;4.10;99.90;4.70;98937.00;;;;339989;28;89320;-89
2021/12/06 00:59:21;;;;;;;;;;;4.10;99.90;4.70;98944.00;;;;340426;28;83451;-89
2021/12/06 00:59:33;;;;;;;;;;;4.10;99.90;4.80;98929.00;;;;340049;28;88117;-88
2021/12/06 00:59:45;;;;;;;;;;;4.10;99.90;4.80;98928.00;;;;340255;28;83380;-88
2021/12/06 00:59:57;;;;;;;;;;;4.10;99.90;4.80;98939.00;;;;339904;28;88896;-87
2021/12/06 01:00:18;;;;;;;;;;;4.10;99.90;4.80;98943.00;;;;338799;28;83394;-89
2021/12/06 01:00:36;;;;;;;;;;;4.10;99.90;4.80;98935.00;;;;338348;28;90149;-89
2021/12/06 01:00:49;;;;;;;;;;;4.10;99.90;4.70;98938.00;;;;338412;28;83700;-89
2021/12/06 01:01:01;;;;;;;;;;;4.10;99.90;4.70;98932.00;;;;338429;28;88127;-89
2021/12/06 01:01:14;;;;;;;;;;;4.10;99.90;4.70;98937.00;;;;339589;28;83529;-89
2021/12/06 01:01:27;;;;;;;;;;;4.10;99.90;4.70;98939.00;;;;339643;28;88461;-89
2021/12/06 01:01:39;;;;;;;;;;;4.10;99.90;4.60;98942.00;;;;343136;28;82602;-89
2021/12/06 01:01:51;;;;;;;;;;;4.10;99.90;4.60;98936.00;;;;342965;28;89100;-89
2021/12/06 01:02:04;;;;;;;;;;;4.10;99.90;4.70;98940.00;;;;344679;28;83491;-89
2021/12/06 01:02:16;;;;;;;;;;;4.10;99.90;4.70;98940.00;;;;346576;28;87206;-89
2021/12/06 01:02:28;;;;;;;;;;;4.10;99.90;4.70;98934.00;;;;344808;28;83316;-89
2021/12/06 01:02:41;;;;;;;;;;;4.10;99.90;4.70;98935.00;;;;342954;28;88869;-88
2021/12/06 01:02:53;;;;;;;;;;;4.10;99.90;4.70;98945.00;;;;344858;28;82571;-89
2021/12/06 01:03:09;;;;;;;;;;;4.10;99.90;4.60;98935.00;;;;344336;28;89275;-89
2021/12/06 01:03:24;;;;;;;;;;;4.10;99.90;4.60;98946.00;;;;344364;28;82415;-88
2021/12/06 01:03:38;;;;;;;;;;;4.10;99.90;4.60;98946.00;;;;340906;28;88504;-89
2021/12/06 01:03:50;;;;;;;;;;;4.10;99.90;4.60;98951.00;;;;337438;28;82465;-89
2021/12/06 01:04:02;;;;;;;;;;;4.10;99.90;4.60;98948.00;;;;338578;28;92438;-89
2021/12/06 01:04:15;;;;;;;;;;;4.10;99.90;4.70;98943.00;;;;339246;28;82291;-89
2021/12/06 01:04:28;;;;;;;;;;;4.10;99.90;4.70;98940.00;;;;337312;28;90027;-89
2021/12/06 01:04:41;;;;;;;;;;;4.10;99.90;4.70;98947.00;;;;335165;28;83522;-89
2021/12/06 01:04:53;;;;;;;;;;;4.10;99.90;4.70;98948.00;;;;336065;28;90104;-89
2021/12/06 01:05:05;;;;;;;;;;;4.10;99.90;4.70;98946.00;;;;339200;28;82353;-88
2021/12/06 01:05:17;;;;;;;;;;;4.10;99.90;4.60;98947.00;;;;337885;28;88056;-87
2021/12/06 01:05:29;;;;;;;;;;;4.10;99.90;4.60;98942.00;;;;338147;28;83350;-89
2021/12/06 01:05:41;;;;;;;;;;;4.10;99.90;4.70;98947.00;;;;337379;28;89277;-89
2021/12/06 01:05:53;;;;;;;;;;;4.10;99.90;4.70;98948.00;;;;336526;28;83225;-89
2021/12/06 01:06:05;;;;;;;;;;;4.10;99.90;4.70;98945.00;;;;337386;28;89229;-89